PWSweather.com
Personal Weather Stations
Station Observations
KAZPHOEN90
RayThunderhill, Phoenix, AZ

RayThunderhillPhoenix, AZ

Lat: 33.312, Lon: -112.029

Elevation: 1260

Station Type: Davis Vantage VUE

High Low Average
Temperature 65.0°F18.3°F 47.4°F8.6°F 56.8°F13.8°F
Dew Point 39.8°F4.3°F 20.1°F-6.6°F 26.4°F-3.1°F
Winds 5.2 mph W8.4 mph W Calm Calm 1.3 mph 2.1 mph
Wind Gusts 15.0 mph24.1 mph -- 3.0 mph4.8 mph
Humidity 53% 20% 32%
Pressure 29.94 in1013.90 in 29.73 in1006.80 in -
Precipitation 0.00 in0.00 in - -
Hour Temp Dew Point Humidity Winds Wind Gusts Pressure Precip Precip Rate Daily Precip Total
12:00 AM 65.0°F18.3°C 37.3°F2.9°C 36% 4.8 mph WSW7.7 kmh WSW 15.0 mph24.1 kmh 29.73 in1006.8 mb - 0.00 in0.0 mm 0.00 in0.0 mm
12:15 AM 63.8°F17.7°C 38.4°F3.6°C 39% 5.2 mph W8.4 kmh W 6.0 mph9.7 kmh 29.73 in1006.8 mb - 0.00 in0.0 mm 0.00 in0.0 mm
12:30 AM 62.6°F17.0°C 39.2°F4.0°C 42% 3.6 mph WSW5.8 kmh WSW 4.0 mph6.4 kmh 29.73 in1006.8 mb - 0.00 in0.0 mm 0.00 in0.0 mm
12:45 AM 61.6°F16.4°C 39.5°F4.2°C 44% 2.2 mph WNW3.5 kmh WNW 6.0 mph9.7 kmh 29.75 in1007.5 mb - 0.00 in0.0 mm 0.00 in0.0 mm
01:00 AM 60.4°F15.8°C 39.5°F4.2°C 46% 3.9 mph NW6.3 kmh NW 5.0 mph8.0 kmh 29.75 in1007.5 mb - 0.00 in0.0 mm 0.00 in0.0 mm
01:15 AM 59.6°F15.3°C 39.8°F4.3°C 48% 3.6 mph WNW5.8 kmh WNW 8.0 mph12.9 kmh 29.76 in1007.8 mb - 0.00 in0.0 mm 0.00 in0.0 mm
01:30 AM 58.9°F14.9°C 39.2°F4.0°C 48% 1.8 mph WSW2.9 kmh WSW 7.0 mph11.3 kmh 29.76 in1007.8 mb - 0.00 in0.0 mm 0.00 in0.0 mm
01:45 AM 58.5°F14.7°C 37.8°F3.2°C 46% Calm Calm -- 29.77 in1008.1 mb - 0.00 in0.0 mm 0.00 in0.0 mm
02:00 AM 57.9°F14.4°C 37.7°F3.2°C 47% Calm Calm -- 29.77 in1008.1 mb - 0.00 in0.0 mm 0.00 in0.0 mm
02:15 AM 57.0°F13.9°C 37.0°F2.8°C 47% 0.1 mph WNW0.2 kmh WNW -- 29.77 in1008.1 mb - 0.00 in0.0 mm 0.00 in0.0 mm
02:30 AM 57.2°F14.0°C 33.7°F0.9°C 41% 0.7 mph W1.1 kmh W 6.0 mph9.7 kmh 29.77 in1008.1 mb - 0.00 in0.0 mm 0.00 in0.0 mm
02:45 AM 57.0°F13.9°C 31.0°F-0.6°C 37% 0.4 mph WNW0.6 kmh WNW 2.0 mph3.2 kmh 29.77 in1008.1 mb - 0.00 in0.0 mm 0.00 in0.0 mm
03:00 AM 56.6°F13.7°C 27.8°F-2.3°C 33% Calm Calm -- 29.77 in1008.1 mb - 0.00 in0.0 mm 0.00 in0.0 mm
03:15 AM 55.7°F13.2°C 25.5°F-3.6°C 31% 0.2 mph W0.3 kmh W 1.0 mph1.6 kmh 29.78 in1008.5 mb - 0.00 in0.0 mm 0.00 in0.0 mm
03:30 AM 54.6°F12.6°C 25.3°F-3.7°C 32% Calm Calm -- 29.78 in1008.5 mb - 0.00 in0.0 mm 0.00 in0.0 mm
03:45 AM 55.3°F12.9°C 25.1°F-3.8°C 31% 0.2 mph S0.3 kmh S 3.0 mph4.8 kmh 29.78 in1008.5 mb - 0.00 in0.0 mm 0.00 in0.0 mm
04:00 AM 55.0°F12.8°C 30.5°F-0.8°C 39% Calm Calm -- 29.79 in1008.8 mb - 0.00 in0.0 mm 0.00 in0.0 mm
04:15 AM 53.6°F12.0°C 31.6°F-0.2°C 43% Calm Calm -- 29.79 in1008.8 mb - 0.00 in0.0 mm 0.00 in0.0 mm
04:30 AM 52.5°F11.4°C 31.8°F-0.1°C 45% Calm Calm -- 29.80 in1009.1 mb - 0.00 in0.0 mm 0.00 in0.0 mm
04:45 AM 50.8°F10.4°C 32.3°F0.2°C 49% Calm Calm -- 29.80 in1009.1 mb - 0.00 in0.0 mm 0.00 in0.0 mm
05:00 AM 49.9°F9.9°C 33.4°F0.8°C 53% Calm Calm -- 29.81 in1009.5 mb - 0.00 in0.0 mm 0.00 in0.0 mm
05:15 AM 50.5°F10.3°C 32.5°F0.3°C 50% Calm Calm -- 29.81 in1009.5 mb - 0.00 in0.0 mm 0.00 in0.0 mm
05:30 AM 50.1°F10.1°C 31.7°F-0.2°C 49% 0.1 mph WSW0.2 kmh WSW -- 29.82 in1009.8 mb - 0.00 in0.0 mm 0.00 in0.0 mm
05:45 AM 51.0°F10.6°C 28.1°F-2.2°C 41% 0.9 mph WSW1.4 kmh WSW 3.0 mph4.8 kmh 29.82 in1009.8 mb - 0.00 in0.0 mm 0.00 in0.0 mm
06:00 AM 51.5°F10.8°C 26.7°F-2.9°C 38% 0.6 mph WSW1.0 kmh WSW 1.0 mph1.6 kmh 29.83 in1010.2 mb - 0.00 in0.0 mm 0.00 in0.0 mm
06:15 AM 51.1°F10.6°C 26.4°F-3.1°C 38% 0.3 mph WSW0.5 kmh WSW 2.0 mph3.2 kmh 29.83 in1010.2 mb - 0.00 in0.0 mm 0.00 in0.0 mm
06:30 AM 49.9°F9.9°C 27.1°F-2.7°C 41% Calm Calm -- 29.84 in1010.5 mb - 0.00 in0.0 mm 0.00 in0.0 mm
06:45 AM 48.9°F9.4°C 26.8°F-2.9°C 42% 0.4 mph W0.6 kmh W 1.0 mph1.6 kmh 29.84 in1010.5 mb - 0.00 in0.0 mm 0.00 in0.0 mm
07:00 AM 48.5°F9.2°C 27.6°F-2.4°C 44% Calm Calm -- 29.84 in1010.5 mb - 0.00 in0.0 mm 0.00 in0.0 mm
07:15 AM 48.0°F8.9°C 27.1°F-2.7°C 44% Calm Calm -- 29.85 in1010.8 mb - 0.00 in0.0 mm 0.00 in0.0 mm
07:30 AM 47.4°F8.6°C 27.6°F-2.4°C 46% 0.2 mph SSW0.3 kmh SSW 3.0 mph4.8 kmh 29.85 in1010.8 mb - 0.00 in0.0 mm 0.00 in0.0 mm
07:45 AM 47.9°F8.8°C 28.0°F-2.2°C 46% Calm Calm 1.0 mph1.6 kmh 29.85 in1010.8 mb - 0.00 in0.0 mm 0.00 in0.0 mm
08:00 AM 47.7°F8.7°C 30.0°F-1.1°C 50% Calm Calm -- 29.85 in1010.8 mb - 0.00 in0.0 mm 0.00 in0.0 mm
08:15 AM 47.8°F8.8°C 28.0°F-2.2°C 46% Calm Calm -- 29.86 in1011.2 mb - 0.00 in0.0 mm 0.00 in0.0 mm
08:30 AM 50.5°F10.3°C 25.2°F-3.8°C 37% 0.2 mph WSW0.3 kmh WSW 1.0 mph1.6 kmh 29.87 in1011.5 mb - 0.00 in0.0 mm 0.00 in0.0 mm
08:45 AM 53.0°F11.7°C 25.3°F-3.7°C 34% 0.1 mph SW0.2 kmh SW 1.0 mph1.6 kmh 29.87 in1011.5 mb - 0.00 in0.0 mm 0.00 in0.0 mm
09:00 AM 54.3°F12.4°C 25.7°F-3.5°C 33% 1.2 mph WSW1.9 kmh WSW 3.0 mph4.8 kmh 29.87 in1011.5 mb - 0.00 in0.0 mm 0.00 in0.0 mm
09:15 AM 55.5°F13.1°C 26.1°F-3.3°C 32% 1.8 mph WSW2.9 kmh WSW 2.0 mph3.2 kmh 29.87 in1011.5 mb - 0.00 in0.0 mm 0.00 in0.0 mm
09:30 AM 56.0°F13.3°C 26.5°F-3.1°C 32% 1.3 mph W2.1 kmh W 4.0 mph6.4 kmh 29.87 in1011.5 mb - 0.00 in0.0 mm 0.00 in0.0 mm
09:45 AM 56.8°F13.8°C 26.5°F-3.1°C 31% 1.2 mph SW1.9 kmh SW 3.0 mph4.8 kmh 29.87 in1011.5 mb - 0.00 in0.0 mm 0.00 in0.0 mm
10:00 AM 57.6°F14.2°C 24.7°F-4.1°C 28% 0.7 mph WSW1.1 kmh WSW 4.0 mph6.4 kmh 29.88 in1011.9 mb - 0.00 in0.0 mm 0.00 in0.0 mm
10:15 AM 57.6°F14.2°C 24.7°F-4.1°C 28% 3.7 mph WNW6.0 kmh WNW 5.0 mph8.0 kmh 29.88 in1011.9 mb - 0.00 in0.0 mm 0.00 in0.0 mm
10:30 AM 58.1°F14.5°C 25.2°F-3.8°C 28% 1.2 mph ESE1.9 kmh ESE 4.0 mph6.4 kmh 29.89 in1012.2 mb - 0.00 in0.0 mm 0.00 in0.0 mm
10:45 AM 58.1°F14.5°C 24.3°F-4.3°C 27% 0.6 mph SE1.0 kmh SE 4.0 mph6.4 kmh 29.89 in1012.2 mb - 0.00 in0.0 mm 0.00 in0.0 mm
11:00 AM 58.8°F14.9°C 23.0°F-5.0°C 25% 1.2 mph SW1.9 kmh SW 2.0 mph3.2 kmh 29.88 in1011.9 mb - 0.00 in0.0 mm 0.00 in0.0 mm
11:15 AM 59.7°F15.4°C 24.7°F-4.1°C 26% 1.7 mph W2.7 kmh W 4.0 mph6.4 kmh 29.88 in1011.9 mb - 0.00 in0.0 mm 0.00 in0.0 mm
11:30 AM 60.2°F15.7°C 25.1°F-3.8°C 26% 2.0 mph SW3.2 kmh SW 5.0 mph8.0 kmh 29.88 in1011.9 mb - 0.00 in0.0 mm 0.00 in0.0 mm
11:45 AM 61.1°F16.2°C 25.0°F-3.9°C 25% 1.2 mph ENE1.9 kmh ENE 4.0 mph6.4 kmh 29.87 in1011.5 mb - 0.00 in0.0 mm 0.00 in0.0 mm
12:00 PM 61.8°F16.6°C 25.5°F-3.6°C 25% 0.4 mph WSW0.6 kmh WSW 1.0 mph1.6 kmh 29.87 in1011.5 mb - 0.00 in0.0 mm 0.00 in0.0 mm
12:15 PM 61.0°F16.1°C 23.9°F-4.5°C 24% Calm Calm 1.0 mph1.6 kmh 29.86 in1011.2 mb - 0.00 in0.0 mm 0.00 in0.0 mm
12:30 PM 61.8°F16.6°C 24.6°F-4.1°C 24% 1.8 mph SW2.9 kmh SW 3.0 mph4.8 kmh 29.86 in1011.2 mb - 0.00 in0.0 mm 0.00 in0.0 mm
12:45 PM 61.7°F16.5°C 25.5°F-3.6°C 25% 1.2 mph NW1.9 kmh NW 3.0 mph4.8 kmh 29.86 in1011.2 mb - 0.00 in0.0 mm 0.00 in0.0 mm
01:00 PM 62.3°F16.8°C 24.0°F-4.4°C 23% 2.3 mph W3.7 kmh W 4.0 mph6.4 kmh 29.85 in1010.8 mb - 0.00 in0.0 mm 0.00 in0.0 mm
01:15 PM 61.8°F16.6°C 24.5°F-4.2°C 24% 4.2 mph SW6.8 kmh SW 6.0 mph9.7 kmh 29.84 in1010.5 mb - 0.00 in0.0 mm 0.00 in0.0 mm
01:30 PM 61.9°F16.6°C 25.7°F-3.5°C 25% 2.1 mph SSW3.4 kmh SSW 4.0 mph6.4 kmh 29.84 in1010.5 mb - 0.00 in0.0 mm 0.00 in0.0 mm
01:45 PM 62.2°F16.8°C 25.9°F-3.4°C 25% 2.2 mph WSW3.5 kmh WSW 5.0 mph8.0 kmh 29.83 in1010.2 mb - 0.00 in0.0 mm 0.00 in0.0 mm
02:00 PM 62.6°F17.0°C 25.3°F-3.7°C 24% 2.5 mph NW4.0 kmh NW 5.0 mph8.0 kmh 29.83 in1010.2 mb - 0.00 in0.0 mm 0.00 in0.0 mm
02:15 PM 62.5°F16.9°C 24.1°F-4.4°C 23% 2.6 mph S4.2 kmh S 7.0 mph11.3 kmh 29.83 in1010.2 mb - 0.00 in0.0 mm 0.00 in0.0 mm
02:30 PM 62.7°F17.1°C 24.3°F-4.3°C 23% 3.0 mph WSW4.8 kmh WSW 9.0 mph14.5 kmh 29.83 in1010.2 mb - 0.00 in0.0 mm 0.00 in0.0 mm
02:45 PM 62.6°F17.0°C 25.3°F-3.7°C 24% 2.2 mph SW3.5 kmh SW 6.0 mph9.7 kmh 29.82 in1009.8 mb - 0.00 in0.0 mm 0.00 in0.0 mm
03:00 PM 63.3°F17.4°C 25.9°F-3.4°C 24% 3.7 mph NW6.0 kmh NW 8.0 mph12.9 kmh 29.82 in1009.8 mb - 0.00 in0.0 mm 0.00 in0.0 mm
03:15 PM 62.9°F17.2°C 25.5°F-3.6°C 24% 1.6 mph NW2.6 kmh NW 4.0 mph6.4 kmh 29.82 in1009.8 mb - 0.00 in0.0 mm 0.00 in0.0 mm
03:30 PM 63.4°F17.4°C 25.9°F-3.4°C 24% 2.2 mph SSW3.5 kmh SSW 7.0 mph11.3 kmh 29.82 in1009.8 mb - 0.00 in0.0 mm 0.00 in0.0 mm
03:45 PM 63.3°F17.4°C 24.9°F-3.9°C 23% 0.5 mph W0.8 kmh W 2.0 mph3.2 kmh 29.82 in1009.8 mb - 0.00 in0.0 mm 0.00 in0.0 mm
04:00 PM 63.4°F17.4°C 23.8°F-4.6°C 22% 1.7 mph SW2.7 kmh SW 7.0 mph11.3 kmh 29.82 in1009.8 mb - 0.00 in0.0 mm 0.00 in0.0 mm
04:15 PM 63.4°F17.4°C 22.7°F-5.2°C 21% 2.5 mph WSW4.0 kmh WSW 6.0 mph9.7 kmh 29.82 in1009.8 mb - 0.00 in0.0 mm 0.00 in0.0 mm
04:30 PM 63.5°F17.5°C 22.8°F-5.1°C 21% 3.3 mph WNW5.3 kmh WNW 5.0 mph8.0 kmh 29.83 in1010.2 mb - 0.00 in0.0 mm 0.00 in0.0 mm
04:45 PM 63.0°F17.2°C 23.5°F-4.7°C 22% 2.8 mph W4.5 kmh W 10.0 mph16.1 kmh 29.83 in1010.2 mb - 0.00 in0.0 mm 0.00 in0.0 mm
05:00 PM 62.7°F17.1°C 22.2°F-5.4°C 21% 3.5 mph W5.6 kmh W 7.0 mph11.3 kmh 29.83 in1010.2 mb - 0.00 in0.0 mm 0.00 in0.0 mm
05:15 PM 62.7°F17.1°C 21.0°F-6.1°C 20% 4.1 mph S6.6 kmh S 7.0 mph11.3 kmh 29.84 in1010.5 mb - 0.00 in0.0 mm 0.00 in0.0 mm
05:30 PM 62.4°F16.9°C 21.9°F-5.6°C 21% 2.2 mph W3.5 kmh W 5.0 mph8.0 kmh 29.84 in1010.5 mb - 0.00 in0.0 mm 0.00 in0.0 mm
05:45 PM 61.5°F16.4°C 21.1°F-6.1°C 21% 2.9 mph NW4.7 kmh NW 5.0 mph8.0 kmh 29.84 in1010.5 mb - 0.00 in0.0 mm 0.00 in0.0 mm
06:00 PM 60.4°F15.8°C 21.3°F-5.9°C 22% 0.7 mph WNW1.1 kmh WNW 1.0 mph1.6 kmh 29.84 in1010.5 mb - 0.00 in0.0 mm 0.00 in0.0 mm
06:15 PM 58.7°F14.8°C 22.0°F-5.6°C 24% 1.1 mph WNW1.8 kmh WNW 4.0 mph6.4 kmh 29.85 in1010.8 mb - 0.00 in0.0 mm 0.00 in0.0 mm
06:30 PM 57.8°F14.3°C 22.2°F-5.4°C 25% 1.6 mph NW2.6 kmh NW 4.0 mph6.4 kmh 29.85 in1010.8 mb - 0.00 in0.0 mm 0.00 in0.0 mm
06:45 PM 57.3°F14.1°C 21.7°F-5.7°C 25% 2.9 mph NW4.7 kmh NW 3.0 mph4.8 kmh 29.85 in1010.8 mb - 0.00 in0.0 mm 0.00 in0.0 mm
07:00 PM 56.9°F13.8°C 21.4°F-5.9°C 25% 2.1 mph NW3.4 kmh NW 5.0 mph8.0 kmh 29.86 in1011.2 mb - 0.00 in0.0 mm 0.00 in0.0 mm
07:15 PM 56.7°F13.7°C 20.3°F-6.5°C 24% 3.5 mph NW5.6 kmh NW 8.0 mph12.9 kmh 29.86 in1011.2 mb - 0.00 in0.0 mm 0.00 in0.0 mm
07:30 PM 56.5°F13.6°C 20.1°F-6.6°C 24% 2.0 mph W3.2 kmh W 6.0 mph9.7 kmh 29.86 in1011.2 mb - 0.00 in0.0 mm 0.00 in0.0 mm
07:45 PM 56.1°F13.4°C 20.7°F-6.3°C 25% 1.4 mph NW2.3 kmh NW 4.0 mph6.4 kmh 29.87 in1011.5 mb - 0.00 in0.0 mm 0.00 in0.0 mm
08:00 PM 55.7°F13.2°C 20.4°F-6.4°C 25% 1.1 mph W1.8 kmh W 3.0 mph4.8 kmh 29.88 in1011.9 mb - 0.00 in0.0 mm 0.00 in0.0 mm
08:15 PM 55.7°F13.2°C 20.4°F-6.4°C 25% Calm Calm -- 29.88 in1011.9 mb - 0.00 in0.0 mm 0.00 in0.0 mm
08:30 PM 55.4°F13.0°C 21.0°F-6.1°C 26% 0.3 mph WSW0.5 kmh WSW -- 29.89 in1012.2 mb - 0.00 in0.0 mm 0.00 in0.0 mm
08:45 PM 54.8°F12.7°C 21.4°F-5.9°C 27% Calm Calm -- 29.90 in1012.5 mb - 0.00 in0.0 mm 0.00 in0.0 mm
09:00 PM 55.1°F12.8°C 20.8°F-6.2°C 26% 1.3 mph W2.1 kmh W 3.0 mph4.8 kmh 29.90 in1012.5 mb - 0.00 in0.0 mm 0.00 in0.0 mm
09:15 PM 54.7°F12.6°C 21.3°F-5.9°C 27% Calm Calm -- 29.91 in1012.9 mb - 0.00 in0.0 mm 0.00 in0.0 mm
09:30 PM 53.9°F12.2°C 22.3°F-5.4°C 29% Calm Calm -- 29.90 in1012.5 mb - 0.00 in0.0 mm 0.00 in0.0 mm
09:45 PM 53.2°F11.8°C 22.5°F-5.3°C 30% Calm Calm -- 29.91 in1012.9 mb - 0.00 in0.0 mm 0.00 in0.0 mm
10:00 PM 53.5°F11.9°C 22.0°F-5.6°C 29% Calm Calm -- 29.91 in1012.9 mb - 0.00 in0.0 mm 0.00 in0.0 mm
10:15 PM 52.8°F11.6°C 23.0°F-5.0°C 31% Calm Calm -- 29.91 in1012.9 mb - 0.00 in0.0 mm 0.00 in0.0 mm
10:30 PM 52.2°F11.2°C 23.2°F-4.9°C 32% Calm Calm -- 29.92 in1013.2 mb - 0.00 in0.0 mm 0.00 in0.0 mm
10:45 PM 50.9°F10.5°C 24.2°F-4.3°C 35% Calm Calm -- 29.93 in1013.5 mb - 0.00 in0.0 mm 0.00 in0.0 mm
11:00 PM 51.2°F10.7°C 22.3°F-5.4°C 32% 0.1 mph W0.2 kmh W -- 29.93 in1013.5 mb - 0.00 in0.0 mm 0.00 in0.0 mm
11:15 PM 50.3°F10.2°C 22.9°F-5.1°C 34% Calm Calm -- 29.93 in1013.5 mb - 0.00 in0.0 mm 0.00 in0.0 mm
11:30 PM 48.9°F9.4°C 24.4°F-4.2°C 38% Calm Calm -- 29.93 in1013.5 mb - 0.00 in0.0 mm 0.00 in0.0 mm
11:45 PM 50.1°F10.1°C 22.8°F-5.1°C 34% 0.3 mph W0.5 kmh W 1.0 mph1.6 kmh 29.94 in1013.9 mb - 0.00 in0.0 mm 0.00 in0.0 mm